Time;durP1;ratioP1;P1;durP2;ratioP2;P2;SDS_P1;SDS_P2;PMS_P1;PMS_P2;Temp;Humidity;BMP_temperature;BMP_pressure;BME280_temperature;BME280_humidity;BME280_pressure;Samples;Min_cycle;Max_cycle;Signal;HPM_P1;HPM_P2
2022/01/23 00:01:54;;;;;;;0.20;0.20;;;5.30;99.90;;;5.11;100.00;101745.59;4894589;29;20211;-81
2022/01/23 00:04:22;;;;;;;0.10;0.10;;;5.30;99.90;;;5.07;100.00;101746.25;4882078;29;20246;-81
2022/01/23 00:06:50;;;;;;;0.10;0.10;;;5.30;99.90;;;4.99;100.00;101737.09;4895800;29;20208;-81
2022/01/23 00:09:18;;;;;;;0.10;0.10;;;5.30;99.90;;;4.97;100.00;101743.06;4886867;29;20673;-81
2022/01/23 00:11:51;;;;;;;0.20;0.20;;;5.30;99.90;;;4.94;100.00;101740.28;4901520;29;20219;-81
2022/01/23 00:17:20;;;;;;;0.10;0.10;;;5.30;99.90;;;4.93;100.00;101743.72;4886049;29;20203;-81
2022/01/23 00:20:05;;;;;;;0.10;0.10;;;5.40;99.90;;;4.91;100.00;101753.22;4918104;29;20363;-81
2022/01/23 00:30:40;;;;;;;0.10;0.10;;;5.10;99.90;;;4.79;100.00;101770.09;4915647;29;20215;-81
2022/01/23 00:33:10;;;;;;;0.10;0.10;;;5.10;99.90;;;4.78;100.00;101776.16;4886324;29;20242;-81
2022/01/23 00:35:41;;;;;;;0.10;0.10;;;5.20;99.90;;;4.93;100.00;101785.66;4885486;29;20216;-81
2022/01/23 00:38:11;;;;;;;0.20;0.20;;;5.20;99.90;;;4.82;100.00;101767.66;4916214;29;20235;-81
2022/01/23 00:40:42;;;;;;;0.20;0.20;;;5.10;99.90;;;4.81;100.00;101771.09;4870277;29;20211;-81
2022/01/23 00:43:30;;;;;;;0.20;0.20;;;5.10;99.90;;;4.76;100.00;101763.81;4900754;29;20488;-80
2022/01/23 00:51:33;;;;;;;0.10;0.10;;;5.10;99.90;;;4.73;100.00;101768.88;4908408;29;20203;-81
2022/01/23 00:54:06;;;;;;;0.10;0.10;;;5.10;99.90;;;4.58;100.00;101763.72;4887904;29;20231;-81
2022/01/23 00:56:35;;;;;;;0.10;0.10;;;5.00;99.90;;;4.58;100.00;101779.44;4887597;29;20207;-81
2022/01/23 00:59:04;;;;;;;0.10;0.10;;;5.00;99.90;;;4.57;100.00;101776.72;4875829;29;20247;-81
2022/01/23 01:01:32;;;;;;;0.10;0.10;;;4.90;99.90;;;4.61;100.00;101786.56;4920174;29;20207;-81
2022/01/23 01:04:01;;;;;;;0.20;0.20;;;5.00;99.90;;;4.50;100.00;101776.41;4903783;23;20238;-83
2022/01/23 01:06:29;;;;;;;0.20;0.20;;;5.00;99.90;;;4.58;100.00;101789.91;4928343;29;20208;-82
2022/01/23 01:09:02;;;;;;;0.20;0.20;;;4.90;99.90;;;4.64;100.00;101800.72;4915930;29;20224;-85
2022/01/23 01:33:47;;;;;;;0.10;0.10;;;4.90;99.90;;;4.50;100.00;101814.78;4900010;29;20212;-83
2022/01/23 01:36:21;;;;;;;0.10;0.10;;;4.80;99.90;;;4.50;100.00;101825.28;4870818;29;20211;-83
2022/01/23 01:38:50;;;;;;;0.10;0.10;;;4.80;99.90;;;4.49;100.00;101829.59;4899675;29;20239;-83
2022/01/23 01:41:22;;;;;;;0.10;0.10;;;4.80;99.90;;;4.47;100.00;101817.25;4915414;29;20208;-83
2022/01/23 01:43:52;;;;;;;0.20;0.20;;;4.80;99.90;;;4.53;100.00;101830.69;4911241;29;20296;-83
2022/01/23 01:46:34;;;;;;;0.10;0.10;;;4.80;99.90;;;4.49;100.00;101828.72;4898868;29;20203;-83
2022/01/23 01:49:07;;;;;;;0.10;0.10;;;4.80;99.90;;;4.44;100.00;101820.59;4915461;29;20211;-82
2022/01/23 01:51:36;;;;;;;0.10;0.10;;;4.70;99.90;;;4.44;100.00;101823.22;4896406;29;20215;-83
2022/01/23 01:54:21;;;;;;;0.10;0.10;;;4.70;99.90;;;4.35;100.00;101820.09;4892469;29;20249;-83
2022/01/23 01:57:04;;;;;;;0.10;0.10;;;4.70;99.90;;;4.37;100.00;101828.03;4866687;29;20212;-83
2022/01/23 02:08:24;;;;;;;0.10;0.10;;;4.60;99.90;;;4.21;100.00;101814.88;4895724;29;20211;-83
2022/01/23 02:11:00;;;;;;;0.20;0.20;;;4.60;99.90;;;4.25;100.00;101830.84;4884715;29;20208;-83
2022/01/23 02:25:15;;;;;;;0.10;0.10;;;4.60;99.90;;;4.21;100.00;101836.72;4903233;29;20242;-83
2022/01/23 02:55:14;;;;;;;0.10;0.10;;;4.40;99.90;;;4.01;100.00;101880.09;4876779;29;20258;-82
2022/01/23 03:00:18;;;;;;;0.52;0.52;;;4.40;99.90;;;3.99;100.00;101889.56;4898448;29;20227;-83
2022/01/23 03:03:08;;;;;;;0.10;0.10;;;4.40;99.90;;;3.99;100.00;101896.53;4870512;29;20219;-82
2022/01/23 03:06:34;;;;;;;0.15;0.15;;;4.30;99.90;;;3.98;100.00;101895.63;4888144;29;20223;-83
2022/01/23 03:14:55;;;;;;;0.10;0.10;;;4.30;99.90;;;3.88;100.00;101916.81;4913055;29;20226;-82
2022/01/23 03:31:25;;;;;;;1.10;1.10;;;4.20;99.90;;;3.77;100.00;101937.09;4887477;29;20216;-83
2022/01/23 03:33:53;;;;;;;0.20;0.20;;;4.20;99.90;;;3.74;100.00;101936.91;4895468;29;20218;-83
2022/01/23 03:36:21;;;;;;;0.10;0.10;;;4.20;99.90;;;3.75;100.00;101937.81;4872003;29;20227;-83
2022/01/23 03:38:50;;;;;;;0.28;0.28;;;4.20;99.90;;;3.74;100.00;101936.00;4891814;29;20211;-84
2022/01/23 03:41:19;;;;;;;0.10;0.10;;;4.10;99.90;;;3.77;100.00;101938.81;4883808;29;20200;-83
2022/01/23 03:43:47;;;;;;;0.10;0.10;;;4.10;99.90;;;3.73;100.00;101931.59;4883513;29;20210;-82
2022/01/23 03:51:39;;;;;;;0.28;0.28;;;4.10;99.90;;;3.74;100.00;101936.91;4912603;29;20208;-84
2022/01/23 03:54:07;;;;;;;0.30;0.30;;;4.10;99.90;;;3.76;100.00;101939.63;4903572;29;20227;-83
2022/01/23 03:56:35;;;;;;;0.10;0.10;;;4.10;99.90;;;3.76;100.00;101939.63;4892242;29;20215;-83
2022/01/23 03:59:03;;;;;;;0.10;0.10;;;4.10;99.90;;;3.73;100.00;101940.34;4906676;29;20195;-83
2022/01/23 04:01:31;;;;;;;0.10;0.10;;;4.10;99.90;;;3.75;100.00;101948.28;4902683;29;20207;-83
2022/01/23 04:04:14;;;;;;;0.10;0.10;;;4.10;99.90;;;3.72;100.00;101959.47;4914159;29;20199;-84
2022/01/23 04:06:42;;;;;;;0.20;0.20;;;4.10;99.90;;;3.71;100.00;101951.53;4898173;29;20223;-83
2022/01/23 04:09:10;;;;;;;1.23;1.17;;;4.10;99.90;;;3.71;100.00;101959.38;4892090;29;20216;-83
2022/01/23 04:11:38;;;;;;;0.52;0.52;;;4.10;99.90;;;3.70;100.00;101966.31;4902757;29;20222;-82
2022/01/23 04:14:11;;;;;;;0.30;0.30;;;4.10;99.90;;;3.71;100.00;101960.28;4897001;29;20207;-83
2022/01/23 04:17:57;;;;;;;0.10;0.10;;;4.10;99.90;;;3.70;100.00;101971.56;4892886;29;20215;-82
2022/01/23 04:33:51;;;;;;;0.20;0.20;;;4.00;99.90;;;3.62;100.00;101970.19;4908370;29;20212;-83
2022/01/23 05:01:30;;;;;;;0.10;0.10;;;4.00;99.90;;;3.62;100.00;102006.81;4901410;29;20238;-83
2022/01/23 05:07:16;;;;;;;0.10;0.10;;;4.00;99.90;;;3.58;100.00;102001.28;4911937;29;20203;-83
2022/01/23 05:10:01;;;;;;;0.10;0.10;;;4.00;99.90;;;3.56;100.00;102002.91;4892082;29;20207;-82
2022/01/23 05:12:49;;;;;;;0.10;0.10;;;3.90;99.90;;;3.59;100.00;102010.94;4882212;29;20222;-82
2022/01/23 05:15:18;;;;;;;0.38;0.38;;;3.90;99.90;;;3.60;100.00;102008.41;4883355;29;20716;-83
2022/01/23 05:17:47;;;;;;;0.10;0.10;;;3.90;99.90;;;3.63;100.00;102010.31;4871051;29;20215;-84
2022/01/23 05:20:17;;;;;;;0.10;0.10;;;3.90;99.90;;;3.62;100.00;102009.41;4871880;29;20243;-83
2022/01/23 05:22:51;;;;;;;0.20;0.20;;;3.90;99.90;;;3.64;100.00;102020.88;4895038;29;20211;-82
2022/01/23 05:25:27;;;;;;;0.10;0.10;;;4.00;99.90;;;3.63;100.00;102013.84;4888999;29;20226;-83
2022/01/23 05:27:55;;;;;;;0.10;0.10;;;3.90;99.90;;;3.64;100.00;102018.25;4900071;29;20207;-83
2022/01/23 05:30:24;;;;;;;0.10;0.10;;;4.00;99.90;;;3.66;100.00;102016.66;4892932;29;20481;-83
2022/01/23 05:32:55;;;;;;;0.20;0.20;;;3.90;99.90;;;3.65;100.00;102013.94;4886897;29;20216;-84
2022/01/23 05:35:25;;;;;;;0.10;0.10;;;4.00;99.90;;;3.63;100.00;102023.41;4896433;29;20246;-83
2022/01/23 05:37:54;;;;;;;0.10;0.10;;;4.00;99.90;;;3.52;100.00;102018.41;4913332;29;20207;-83
2022/01/23 05:40:27;;;;;;;0.10;0.10;;;4.00;99.90;;;3.48;100.00;102028.59;4893666;29;20234;-82
2022/01/23 05:42:56;;;;;;;1.20;1.10;;;3.90;99.90;;;3.46;100.00;102028.50;4890279;29;20219;-83
2022/01/23 05:45:25;;;;;;;0.10;0.10;;;3.90;99.90;;;3.48;100.00;102029.50;4871309;29;20226;-83
2022/01/23 05:48:09;;;;;;;0.10;0.10;;;3.90;99.90;;;3.47;100.00;102037.25;4898460;29;20204;-83
2022/01/23 05:50:52;;;;;;;0.10;0.10;;;3.90;99.90;;;3.48;100.00;102045.19;4899956;29;20212;-83
2022/01/23 05:53:55;;;;;;;0.10;0.10;;;3.90;99.90;;;3.53;100.00;102053.31;4899418;29;20207;-82
2022/01/23 05:56:37;;;;;;;0.10;0.10;;;3.90;99.90;;;3.48;100.00;102047.78;4875143;29;20214;-83
2022/01/23 05:59:22;;;;;;;0.10;0.10;;;3.90;99.90;;;3.52;100.00;102067.19;4892294;29;20211;-83
2022/01/23 06:01:53;;;;;;;0.10;0.10;;;3.80;99.90;;;3.49;100.00;102064.41;4918226;29;20239;-83
2022/01/23 06:04:30;;;;;;;0.10;0.10;;;3.90;99.90;;;3.48;100.00;102067.81;4902957;29;20231;-83
2022/01/23 06:07:14;;;;;;;0.10;0.10;;;3.90;99.90;;;3.54;100.00;102074.34;4879161;29;20212;-83
2022/01/23 06:10:00;;;;;;;0.10;0.10;;;3.80;99.90;;;3.51;100.00;102074.16;4874583;29;20211;-83
2022/01/23 06:12:28;;;;;;;0.10;0.10;;;3.90;99.90;;;3.56;100.00;102084.00;4905097;29;20302;-83
2022/01/23 06:14:57;;;;;;;0.10;0.10;;;3.90;99.90;;;3.61;100.00;102079.97;4873656;29;20219;-85
2022/01/23 06:17:25;;;;;;;0.20;0.20;;;3.90;99.90;;;3.57;100.00;102070.09;4877051;29;20203;-83
2022/01/23 06:20:13;;;;;;;0.10;0.10;;;3.90;99.90;;;3.51;100.00;102076.75;4896010;29;20234;-82
2022/01/23 06:23:00;;;;;;;0.10;0.10;;;3.90;99.90;;;3.51;100.00;102073.25;4895435;29;20227;-86
2022/01/23 06:25:58;;;;;;;0.10;0.10;;;3.90;99.90;;;3.51;100.00;102078.47;4903189;29;20223;-83
2022/01/23 06:28:55;;;;;;;0.10;0.10;;;3.80;99.90;;;3.51;100.00;102079.38;4899044;29;20199;-82
2022/01/23 06:31:23;;;;;;;0.10;0.10;;;3.90;99.90;;;3.44;100.00;102071.03;4911853;29;20203;-83
2022/01/23 06:33:52;;;;;;;0.10;0.10;;;3.80;99.90;;;3.39;100.00;102075.97;4884136;29;20211;-82
2022/01/23 06:36:22;;;;;;;0.10;0.10;;;3.80;99.90;;;3.44;100.00;102091.97;4896657;29;20219;-84
2022/01/23 06:38:50;;;;;;;0.10;0.10;;;3.80;99.90;;;3.46;100.00;102104.34;4877541;29;20212;-83
2022/01/23 06:41:20;;;;;;;0.10;0.10;;;3.80;99.90;;;3.47;100.00;102095.69;4879986;29;20236;-83
2022/01/23 06:44:18;;;;;;;0.10;0.10;;;3.80;99.90;;;3.51;100.00;102104.63;4868768;29;20224;-83
2022/01/23 06:46:46;;;;;;;0.10;0.10;;;3.80;99.90;;;3.51;100.00;102112.47;4882482;29;20207;-83
2022/01/23 06:49:15;;;;;;;0.20;0.20;;;3.80;99.90;;;3.43;100.00;102112.00;4897840;29;20208;-82
2022/01/23 06:51:45;;;;;;;0.20;0.20;;;3.80;99.90;;;3.48;100.00;102112.28;4867774;29;20220;-82
2022/01/23 06:54:13;;;;;;;0.20;0.20;;;3.80;99.90;;;3.42;100.00;102099.72;4899586;29;20238;-82
2022/01/23 06:56:41;;;;;;;0.20;0.20;;;3.80;99.90;;;3.42;100.00;102112.78;4897839;29;20215;-82
2022/01/23 06:59:12;;;;;;;0.10;0.10;;;3.80;99.90;;;3.45;100.00;102117.31;4912750;29;20215;-82
2022/01/23 07:01:45;;;;;;;0.10;0.10;;;3.80;99.90;;;3.46;100.00;102135.72;4871158;29;20234;-83
2022/01/23 07:04:19;;;;;;;0.10;0.10;;;3.80;99.90;;;3.44;100.00;102132.09;4912162;23;20222;-82
2022/01/23 07:07:09;;;;;;;0.10;0.10;;;3.80;99.90;;;3.45;100.00;102133.00;4909348;29;20572;-82
2022/01/23 07:10:04;;;;;;;0.10;0.10;;;3.80;99.90;;;3.42;100.00;102138.94;4916055;29;20226;-82
2022/01/23 07:12:38;;;;;;;0.43;0.43;;;3.80;99.90;;;3.38;100.00;102143.88;4891952;29;20225;-83
2022/01/23 07:15:27;;;;;;;0.10;0.10;;;3.80;99.90;;;3.34;100.00;102148.00;4929233;29;20227;-82
2022/01/23 07:18:19;;;;;;;0.10;0.10;;;3.80;99.90;;;3.36;100.00;102159.47;4921352;29;20235;-82
2022/01/23 07:21:07;;;;;;;0.10;0.10;;;3.70;99.90;;;3.38;100.00;102159.56;4897250;29;20211;-84
2022/01/23 07:23:38;;;;;;;0.10;0.10;;;3.80;99.90;;;3.41;100.00;102180.69;4918111;29;20200;-82
2022/01/23 07:26:08;;;;;;;0.20;0.20;;;3.70;99.90;;;3.42;100.00;102178.19;4907130;29;20227;-82
2022/01/23 07:28:41;;;;;;;0.10;0.10;;;3.70;99.90;;;3.36;100.00;102172.53;4911022;29;20213;-82
2022/01/23 07:31:11;;;;;;;0.38;0.38;;;3.70;99.90;;;3.41;100.00;102178.97;4925601;29;20235;-82
2022/01/23 07:33:40;;;;;;;0.20;0.20;;;3.70;99.90;;;3.40;100.00;102174.56;4912378;29;20215;-83
2022/01/23 07:36:14;;;;;;;0.10;0.10;;;3.70;99.90;;;3.48;100.00;102182.91;4926290;29;20235;-82
2022/01/23 07:38:42;;;;;;;0.10;0.10;;;3.70;99.90;;;3.50;100.00;102183.91;4893522;29;20208;-82
2022/01/23 07:41:23;;;;;;;0.38;0.38;;;3.80;99.90;;;3.51;100.00;102177.88;4875668;29;20714;-83
2022/01/23 07:43:58;;;;;;;0.22;0.22;;;3.80;99.90;;;3.55;100.00;102185.13;4874887;29;20208;-83
2022/01/23 07:46:43;;;;;;;0.10;0.10;;;3.80;99.90;;;3.53;100.00;102181.50;4883657;29;20229;-82
2022/01/23 07:49:15;;;;;;;0.10;0.10;;;3.80;99.90;;;3.51;100.00;102186.63;4910907;29;20207;-82
2022/01/23 07:52:04;;;;;;;0.10;0.10;;;3.80;99.90;;;3.48;100.00;102180.28;4931588;29;20212;-82
2022/01/23 07:54:46;;;;;;;0.20;0.20;;;3.80;99.90;;;3.50;100.00;102191.75;4922514;29;20239;-82
2022/01/23 07:57:31;;;;;;;0.10;0.10;;;3.80;99.90;;;3.53;100.00;102203.31;4914544;29;20203;-82
2022/01/23 08:00:19;;;;;;;0.10;0.10;;;3.80;99.90;;;3.57;100.00;102199.19;4892977;29;20215;-82
2022/01/23 08:02:47;;;;;;;0.10;0.10;;;3.80;99.90;;;3.55;100.00;102206.03;4908762;29;20228;-82
2022/01/23 08:05:34;;;;;;;0.10;0.10;;;3.90;99.90;;;3.54;100.00;102202.53;4920047;29;20232;-82
2022/01/23 08:08:20;;;;;;;0.10;0.10;;;3.90;99.90;;;3.58;100.00;102210.56;4927415;29;20207;-83
2022/01/23 08:11:07;;;;;;;0.10;0.10;;;3.90;99.90;;;3.59;100.00;102221.13;4912270;29;20215;-83
2022/01/23 08:13:35;;;;;;;0.20;0.20;;;3.90;99.90;;;3.60;100.00;102211.56;4906859;29;20204;-82
2022/01/23 08:16:04;;;;;;;0.20;0.20;;;3.90;99.90;;;3.61;100.00;102223.84;4908900;29;20239;-82
2022/01/23 08:18:32;;;;;;;0.10;0.10;;;3.90;99.90;;;3.64;100.00;102224.06;4907728;29;20202;-83
2022/01/23 08:21:00;;;;;;;0.10;0.10;;;3.90;99.90;;;3.65;100.00;102228.47;4909613;29;20208;-83
2022/01/23 08:23:28;;;;;;;0.20;0.20;;;3.90;99.90;;;3.70;100.00;102233.22;4887348;29;20204;-83
2022/01/23 08:25:56;;;;;;;0.10;0.10;;;3.90;99.90;;;3.71;100.00;102227.16;4890020;29;20231;-82
2022/01/23 08:28:24;;;;;;;0.20;0.20;;;4.00;99.90;;;3.76;100.00;102230.09;4909578;29;20211;-81
2022/01/23 08:30:52;;;;;;;0.10;0.10;;;4.00;99.90;;;3.77;100.00;102221.44;4888093;29;20219;-82
2022/01/23 08:33:20;;;;;;;0.10;0.10;;;4.00;99.90;;;3.80;100.00;102226.84;4905309;29;20211;-83
2022/01/23 08:35:56;;;;;;;0.10;0.10;;;4.10;99.90;;;3.82;100.00;102222.63;4912854;29;20231;-82
2022/01/23 08:38:24;;;;;;;0.10;0.10;;;4.10;99.90;;;3.84;100.00;102226.25;4870653;29;20212;-83
2022/01/23 08:41:49;;;;;;;0.40;0.40;;;4.10;99.90;;;3.81;100.00;102223.44;4891426;29;20215;-83
2022/01/23 08:43:48;;;;;;;0.10;0.10;;;4.10;99.90;;;3.83;100.00;102227.06;4933208;29;20215;-82
2022/01/23 08:46:18;;;;;;;0.10;0.10;;;4.10;99.90;;;3.82;100.00;102223.53;4904978;29;20231;-84
2022/01/23 08:48:47;;;;;;;0.10;0.10;;;4.10;99.90;;;3.86;100.00;102222.03;4869053;29;20203;-81
2022/01/23 08:51:15;;;;;;;0.10;0.10;;;4.10;99.90;;;3.88;100.00;102229.97;4899528;29;20220;-82
2022/01/23 08:53:44;;;;;;;0.10;0.10;;;4.10;99.90;;;3.90;100.00;102231.91;4882973;29;20208;-82
2022/01/23 08:56:13;;;;;;;0.15;0.15;;;4.20;99.90;;;3.94;100.00;102235.63;4908509;29;20227;-83
2022/01/23 08:58:46;;;;;;;0.10;0.10;;;4.20;99.90;;;3.98;100.00;102235.94;4898157;29;20219;-83
2022/01/23 09:01:29;;;;;;;0.10;0.10;;;4.20;99.90;;;4.02;100.00;102237.94;4874854;29;20207;-83
2022/01/23 09:03:57;;;;;;;0.10;0.10;;;4.30;99.90;;;4.03;100.00;102237.13;4915351;29;20578;-82
2022/01/23 09:06:25;;;;;;;0.10;0.10;;;4.30;99.90;;;4.08;100.00;102245.28;4900021;29;20236;-82
2022/01/23 09:08:54;;;;;;;0.10;0.10;;;4.30;99.90;;;4.09;100.00;102241.84;4897762;29;20211;-83
2022/01/23 09:11:27;;;;;;;0.40;0.40;;;4.40;99.90;;;4.16;100.00;102241.44;4867694;29;20219;-85
2022/01/23 09:17:00;;;;;;;0.10;0.10;;;4.50;99.90;;;4.27;100.00;102236.88;4893038;29;20223;-83
2022/01/23 09:19:29;;;;;;;0.10;0.10;;;4.50;99.90;;;4.31;100.00;102226.69;4871228;29;20224;-83
2022/01/23 09:22:01;;;;;;;0.75;0.75;;;4.50;99.90;;;4.37;100.00;102231.41;4897445;29;20239;-83
2022/01/23 09:24:30;;;;;;;0.10;0.10;;;4.50;99.90;;;4.40;100.00;102231.59;4904713;29;20214;-83
2022/01/23 09:27:05;;;;;;;0.10;0.10;;;4.60;99.90;;;4.45;100.00;102224.94;4883844;29;20204;-80
2022/01/23 09:29:40;;;;;;;0.10;0.10;;;4.70;99.90;;;4.49;100.00;102222.59;4883764;29;20206;-82
2022/01/23 09:32:14;;;;;;;0.50;0.50;;;4.80;99.90;;;4.56;100.00;102213.38;4897193;29;20220;-83
2022/01/23 09:34:45;;;;;;;0.10;0.10;;;4.80;99.90;;;4.58;100.00;102200.38;4920037;29;20235;-82
2022/01/23 09:37:17;;;;;;;0.20;0.20;;;4.90;99.90;;;4.65;100.00;102195.59;4900745;29;20215;-82
2022/01/23 09:39:49;;;;;;;0.10;0.10;;;4.90;99.90;;;4.68;100.00;102184.41;4904695;29;20218;-82
2022/01/23 09:42:34;;;;;;;0.20;0.20;;;4.90;99.90;;;4.68;100.00;102174.81;4904759;29;20247;-82
2022/01/23 09:45:12;;;;;;;0.20;0.20;;;5.00;99.90;;;4.73;100.00;102173.38;4910704;29;20238;-82
2022/01/23 09:47:41;;;;;;;0.10;0.10;;;5.00;99.90;;;4.79;100.00;102168.50;4926267;29;20210;-82
2022/01/23 09:50:15;;;;;;;0.10;0.10;;;5.00;99.90;;;4.85;100.00;102161.81;4928406;29;20545;-82
2022/01/23 09:52:45;;;;;;;0.10;0.10;;;5.10;99.90;;;4.82;100.00;102152.97;4915479;29;20223;-82
2022/01/23 09:55:13;;;;;;;0.10;0.10;;;5.10;99.90;;;4.87;100.00;102155.88;4917646;29;20256;-82
2022/01/23 09:57:45;;;;;;;0.10;0.10;;;5.10;99.90;;;4.91;100.00;102149.97;4908487;29;20206;-82
2022/01/23 10:00:26;;;;;;;0.10;0.10;;;5.10;99.90;;;4.94;100.00;102144.03;4900197;29;20423;-82
2022/01/23 10:03:01;;;;;;;0.10;0.10;;;5.10;99.90;;;4.98;100.00;102138.13;4880915;29;20243;-82
2022/01/23 10:05:30;;;;;;;0.10;0.10;;;5.20;99.90;;;5.02;100.00;102145.38;4874229;29;20230;-82
2022/01/23 10:08:00;;;;;;;0.10;0.10;;;5.20;99.90;;;5.01;100.00;102136.59;4877157;29;20213;-82
2022/01/23 10:10:32;;;;;;;0.10;0.10;;;5.30;99.90;;;5.07;100.00;102144.81;4890563;29;20204;-82
2022/01/23 10:13:07;;;;;;;0.10;0.10;;;5.30;99.90;;;5.10;100.00;102139.75;4898477;29;20204;-82
2022/01/23 10:15:36;;;;;;;0.15;0.15;;;5.30;99.90;;;5.17;100.00;102143.66;4916529;29;20231;-82
2022/01/23 10:18:04;;;;;;;0.10;0.10;;;5.40;99.90;;;5.15;100.00;102124.28;4895608;29;20207;-82
2022/01/23 10:20:32;;;;;;;0.20;0.20;;;5.50;99.90;;;5.14;100.00;102115.53;4884366;29;20218;-82
2022/01/23 10:23:01;;;;;;;0.10;0.10;;;5.50;99.90;;;5.20;100.00;102103.56;4925363;29;20227;-82
2022/01/23 10:25:32;;;;;;;0.52;0.52;;;5.40;99.90;;;5.23;100.00;102098.53;4923829;29;20235;-82
2022/01/23 10:28:07;;;;;;;0.10;0.10;;;5.50;99.90;;;5.30;100.00;102108.56;4912749;29;20200;-82
2022/01/23 10:30:59;;;;;;;0.20;0.20;;;5.50;99.90;;;5.29;100.00;102097.16;4924889;29;20215;-82
2022/01/23 10:33:39;;;;;;;0.20;0.20;;;5.50;99.90;;;5.39;100.00;102101.22;4864905;29;20207;-82
2022/01/23 10:36:17;;;;;;;0.30;0.30;;;5.60;99.90;;;5.47;100.00;102113.94;4874020;29;20712;-81
2022/01/23 10:38:54;;;;;;;0.15;0.15;;;5.70;99.90;;;5.53;100.00;102101.97;4931226;29;20211;-82
2022/01/23 10:42:12;;;;;;;0.10;0.10;;;5.70;99.90;;;5.56;100.00;102091.66;4927815;29;20208;-82
2022/01/23 10:50:03;;;;;;;0.10;0.10;;;5.70;99.90;;;5.54;100.00;102059.19;4915193;29;20211;-82
2022/01/23 10:52:38;;;;;;;0.10;0.10;;;5.80;99.90;;;5.59;100.00;102053.38;4895490;29;20207;-82
2022/01/23 10:55:18;;;;;;;0.20;0.20;;;5.80;99.90;;;5.72;100.00;102068.97;4919377;29;20231;-82
2022/01/23 10:57:54;;;;;;;0.10;0.10;;;5.90;99.90;;;5.78;100.00;102074.53;4900644;29;20215;-82
2022/01/23 11:00:38;;;;;;;0.10;0.10;;;6.00;99.90;;;5.69;100.00;102052.13;4890914;29;20215;-82
2022/01/23 11:03:23;;;;;;;0.10;0.10;;;6.00;99.90;;;5.72;100.00;102055.84;4927267;29;20215;-82
2022/01/23 11:05:53;;;;;;;0.10;0.10;;;6.00;99.90;;;5.66;100.00;102044.09;4891831;29;20239;-82
2022/01/23 11:08:32;;;;;;;0.10;0.10;;;6.00;99.90;;;5.78;100.00;102060.50;4923008;29;20208;-82
2022/01/23 11:11:06;;;;;;;0.10;0.10;;;6.00;99.90;;;5.78;100.00;102058.78;4911028;29;20569;-82
2022/01/23 11:19:40;;;;;;;0.10;0.10;;;6.00;99.90;;;5.90;100.00;102058.59;4906664;29;20211;-81
2022/01/23 11:22:41;;;;;;;0.20;0.20;;;6.10;99.90;;;5.84;100.00;102039.84;4898528;29;20222;-79
2022/01/23 11:25:14;;;;;;;0.20;0.20;;;6.10;99.90;;;5.83;100.00;102031.88;4880638;29;20231;-83
2022/01/23 11:27:42;;;;;;;0.10;0.10;;;6.10;99.90;;;5.86;100.00;102035.56;4895908;29;20215;-82
2022/01/23 11:30:43;;;;;;;0.10;0.10;;;6.10;99.90;;;5.84;100.00;102029.34;4913006;29;20223;-83
2022/01/23 11:33:18;;;;;;;0.20;0.20;;;6.10;99.90;;;5.96;100.00;102053.66;4874833;29;20202;-82
2022/01/23 11:35:52;;;;;;;0.10;0.10;;;6.20;99.90;;;5.92;100.00;102032.41;4877512;29;20227;-82
2022/01/23 11:38:22;;;;;;;0.20;0.20;;;6.20;99.90;;;5.92;100.00;102027.16;4886460;29;20200;-83
2022/01/23 12:00:07;;;;;;;0.80;0.57;;;5.70;99.90;;;5.88;100.00;102018.19;4917410;29;20215;-83
2022/01/23 12:03:08;;;;;;;0.10;0.10;;;6.20;99.90;;;5.93;100.00;102024.59;4891141;29;20215;-83
2022/01/23 12:06:13;;;;;;;0.10;0.10;;;6.20;99.90;;;5.96;100.00;102014.28;4927583;29;20348;-83
2022/01/23 12:08:47;;;;;;;0.10;0.10;;;6.30;99.90;;;5.98;100.00;102010.00;4884382;29;20211;-83
2022/01/23 12:11:38;;;;;;;0.10;0.10;;;6.30;99.90;;;6.03;100.00;102018.13;4901945;29;20223;-82
2022/01/23 12:17:21;;;;;;;0.10;0.10;;;6.40;99.90;;;6.06;100.00;102028.78;4901842;29;20212;-82
2022/01/23 12:20:01;;;;;;;0.10;0.10;;;6.40;99.90;;;6.05;100.00;102024.34;4900610;29;20208;-82
2022/01/23 12:22:36;;;;;;;0.10;0.10;;;6.40;99.90;;;5.95;100.00;102006.31;4871785;29;20212;-82
2022/01/23 12:25:22;;;;;;;0.10;0.10;;;6.40;99.90;;;6.03;100.00;102000.63;4894994;29;20250;-83
2022/01/23 12:28:32;;;;;;;0.10;0.10;;;6.40;99.90;;;5.95;100.00;101980.06;4908036;29;20653;-82
2022/01/23 12:31:15;;;;;;;0.10;0.10;;;6.40;99.90;;;5.99;100.00;101988.16;4883132;29;20244;-81
2022/01/23 12:33:48;;;;;;;0.10;0.10;;;6.40;99.90;;;6.04;100.00;101991.94;4916099;29;20203;-82
2022/01/23 12:36:33;;;;;;;0.20;0.20;;;6.40;99.90;;;6.09;100.00;101995.69;4914700;29;20231;-82
2022/01/23 12:39:07;;;;;;;0.10;0.10;;;6.40;99.90;;;6.02;100.00;101983.06;4907282;29;20208;-82
2022/01/23 12:41:57;;;;;;;0.17;0.17;;;6.40;99.90;;;6.25;100.00;102021.03;4908029;29;20203;-83
2022/01/23 12:46:16;;;;;;;0.10;0.10;;;6.50;99.90;;;6.14;100.00;101997.66;4922884;29;20251;-82
2022/01/23 12:48:51;;;;;;;0.10;0.10;;;6.50;99.90;;;6.19;100.00;102010.22;4898510;29;20215;-82
2022/01/23 12:51:21;;;;;;;0.10;0.10;;;6.50;99.90;;;6.15;100.00;101992.50;4891004;29;20211;-82
2022/01/23 12:53:49;;;;;;;0.10;0.10;;;6.50;99.90;;;6.20;100.00;102001.50;4893107;29;20222;-82
2022/01/23 12:56:41;;;;;;;0.20;0.20;;;6.60;99.90;;;6.29;100.00;102017.75;4873059;29;20251;-82
2022/01/23 12:59:23;;;;;;;0.10;0.10;;;6.60;99.90;;;6.29;100.00;102003.72;4887363;29;20207;-82
2022/01/23 13:01:59;;;;;;;0.10;0.10;;;6.60;99.90;;;6.26;100.00;102008.81;4891289;29;20204;-82
2022/01/23 13:04:39;;;;;;;0.10;0.10;;;6.60;99.90;;;6.33;100.00;102014.44;4854704;29;20224;-82
2022/01/23 13:08:08;;;;;;;0.10;0.10;;;6.70;99.90;;;6.34;100.00;102015.34;4899933;29;20207;-82
2022/01/23 13:10:36;;;;;;;0.30;0.30;;;6.70;99.90;;;6.36;100.00;102011.06;4891721;29;20211;-82
2022/01/23 13:19:16;;;;;;;0.10;0.10;;;6.80;99.90;;;6.18;100.00;101976.88;4879747;29;20215;-82
2022/01/23 13:30:39;;;;;;;0.10;0.10;;;6.80;99.90;;;6.46;100.00;102017.69;4896253;29;20203;-81
2022/01/23 13:33:21;;;;;;;0.10;0.10;;;6.80;99.90;;;6.34;100.00;102003.13;4894556;29;20206;-82
2022/01/23 13:35:55;;;;;;;0.13;0.13;;;6.80;99.90;;;6.36;100.00;102003.19;4909346;29;20238;-83
2022/01/23 13:38:32;;;;;;;0.10;0.10;;;6.80;99.90;;;6.41;100.00;102015.75;4878748;29;20209;-84
2022/01/23 13:41:25;;;;;;;0.10;0.10;;;6.80;99.90;;;6.28;100.00;101981.78;4912923;29;20204;-84
2022/01/23 13:51:12;;;;;;;0.10;0.10;;;6.80;99.90;;;6.36;100.00;101998.84;4892512;29;20203;-83
2022/01/23 13:52:43;;;;;;;0.10;0.10;;;6.80;99.90;;;6.50;100.00;102022.28;4905239;29;21049;-84
2022/01/23 13:58:31;;;;;;;0.10;0.10;;;6.80;99.90;;;6.48;100.00;102009.06;4892807;29;20219;-83
2022/01/23 14:00:59;;;;;;;0.20;0.20;;;6.90;99.90;;;6.36;100.00;101987.44;4877083;29;21038;-86
2022/01/23 14:03:35;;;;;;;0.20;0.20;;;6.90;99.90;;;6.42;100.00;101993.91;4879984;29;20660;-84
2022/01/23 14:06:03;;;;;;;0.10;0.10;;;6.90;99.90;;;6.40;100.00;101994.66;4876042;29;20247;-84
2022/01/23 14:08:32;;;;;;;0.20;0.20;;;6.80;99.90;;;6.38;100.00;101991.94;4921917;29;20208;-84
2022/01/23 14:11:03;;;;;;;0.10;0.10;;;6.90;99.90;;;6.39;100.00;101993.75;4909521;29;20211;-84
2022/01/23 14:13:31;;;;;;;0.10;0.10;;;6.80;99.90;;;6.45;100.00;102005.38;4895440;29;20219;-84
2022/01/23 14:15:59;;;;;;;0.10;0.10;;;6.90;99.90;;;6.46;100.00;102002.84;4907044;29;20238;-84
2022/01/23 14:18:31;;;;;;;0.10;0.10;;;6.90;99.90;;;6.40;100.00;101992.00;4927890;29;20215;-84
2022/01/23 14:21:09;;;;;;;0.17;0.17;;;6.90;99.90;;;6.49;100.00;102005.63;4862802;29;20212;-84
2022/01/23 14:23:37;;;;;;;0.43;0.43;;;6.90;99.90;;;6.36;100.00;101979.53;4884343;29;20212;-84
2022/01/23 14:26:13;;;;;;;0.10;0.10;;;6.80;99.90;;;6.31;100.00;101976.69;4906681;29;20242;-84
2022/01/23 14:28:46;;;;;;;0.13;0.13;;;6.80;99.90;;;6.33;100.00;101984.66;4893412;29;20203;-84
2022/01/23 14:31:22;;;;;;;0.20;0.20;;;6.80;99.90;;;6.38;100.00;101993.66;4892917;29;20200;-84
2022/01/23 14:33:56;;;;;;;0.10;0.10;;;6.80;99.90;;;6.28;100.00;101984.41;4893333;29;20219;-84
2022/01/23 14:36:35;;;;;;;1.55;1.45;;;6.80;99.90;;;6.35;100.00;101985.63;4881702;29;20234;-84